Allerte
Precipitazioni in corso 

Lampedusa

Allerta Gelo (░C)  

Nessuna

Allerta Vento (km/h)  

Monte Scuro
46.3/NNO

Scarsa VisibilitÓ (m) 

Monte Termin
0

Allerta Caldo (░C)  

Nessuna

Allerta Afa (░C-UR)  

Nessuna

Dati e Grafici Climatici 3-7 gg
L'OMTeA propone un elaborazione dei più importanti parametri meteorologici rilevati dalle stazioni che hanno aderito al progetto di monitoraggio. In questa sezione è possibile consultare i dati provenienti dalle centraline, interpretati attraverso output testuale e grafico.
Se vuoi aderire alla rete OMTeA vai alla pagina Info e leggi requisiti e vantaggi.

Stazione di Pomezia - www.pomeziameteo.it

Valori rilevati il 22/03/2019 alle ore 21:45

Temperatura atmosferica: 13.9 °C
Pressione atmosferica: 1022.6 mbar
Umidità relativa: 57 %

Altitudine: 108 metri s.l.m.
Latitudine: 41.41° N
Longitudine: 12.30° E



Entra nella rete OMTeA!. Potrai liberamente usare sul tuo sito questi grafici; info alla pagina Istruzioni.

Ultime 50 rilevazioni
Orario Temp
°C
Rugiada
°C
Prec.
mm
Press.
mbar
Umidità
%
Int. vento
km/h
Dir.
vento
21:45 - 22/03 13.9 5.5 0 1022.60 57 0 --
21:30 - 22/03 14.7 5.5 0 1022.50 54 0 --
21:15 - 22/03 15.0 5.5 0 1022.60 53 0 --
20:59 - 22/03 15.3 5.8 0 1022.80 53 0 --
20:45 - 22/03 15.6 5.5 0 1022.70 51 0 --
20:30 - 22/03 15.7 5.3 0 1022.80 50 0 --
20:15 - 22/03 15.8 5.4 0 1022.70 50 0 --
19:59 - 22/03 15.9 5.2 0 1022.60 49 0 --
19:46 - 22/03 16.1 5.4 0 1022.60 49 0 --
19:29 - 22/03 16.3 5.3 0 1022.50 48 0 --
19:14 - 22/03 16.3 5.3 0 1022.50 48 0 --
19:00 - 22/03 16.5 5.7 0 1022.40 49 0 --
18:44 - 22/03 16.7 5.6 0 1022.30 48 0 --
18:29 - 22/03 17.2 6.1 0 1022.30 48 0 --
18:15 - 22/03 17.7 6.2 0 1022.30 47 0 --
18:00 - 22/03 18.1 6.0 0 1022.20 45 1.6 NO
17:45 - 22/03 18.3 5.8 0 1022.20 44 11.3 O
17:29 - 22/03 19.0 6.1 0 1022.00 43 0 --
17:14 - 22/03 19.2 5.6 0 1022.00 41 1.6 NO
16:59 - 22/03 19.4 6.2 0 1022.00 42 0 --
16:44 - 22/03 19.8 5.8 0 1021.90 40 0 --
16:29 - 22/03 20.0 6.0 0 1021.90 40 6.4 SSE
16:14 - 22/03 20.3 5.9 0 1022.00 39 8.0 NO
15:59 - 22/03 20.4 6.0 0 1022.20 39 0 --
15:44 - 22/03 20.8 6.3 0 1022.20 39 0 --
15:29 - 22/03 20.8 6.3 0 1022.20 39 0 --
15:14 - 22/03 20.6 6.9 0 1022.40 41 0 --
14:59 - 22/03 20.3 7.0 0 1022.70 42 0 --
14:44 - 22/03 20.6 6.9 0 1022.80 41 0 --
14:29 - 22/03 20.5 5.3 0 1022.90 37 3.2 NO
14:14 - 22/03 20.6 5.4 0 1023.10 37 0 --
14:00 - 22/03 20.5 5.7 0 1023.20 38 0 --
13:44 - 22/03 20.6 5.4 0 1023.30 37 0 --
13:29 - 22/03 20.7 5.5 0 1023.30 37 0 --
13:14 - 22/03 20.7 5.5 0 1023.60 37 0 --
12:59 - 22/03 20.7 5.1 0 1023.80 36 0 --
12:44 - 22/03 21.1 6.2 0 1024.00 38 0 --
12:29 - 22/03 21.5 6.6 0 1024.10 38 0 --
12:14 - 22/03 20.8 6.3 0 1024.10 39 0 --
11:59 - 22/03 20.3 6.6 0 1024.30 41 3.2 ENE
11:44 - 22/03 20.1 6.4 0 1024.40 41 0 --
11:29 - 22/03 19.5 6.9 0 1024.50 44 0 --
11:14 - 22/03 19.1 6.9 0 1024.60 45 0 --
10:59 - 22/03 18.6 6.7 0 1024.60 46 0 --
10:46 - 22/03 18.0 7.1 0 1024.60 49 0 --
10:29 - 22/03 17.6 7.0 0 1024.50 50 0 --
10:14 - 22/03 16.8 7.4 0 1024.80 54 0 --
09:59 - 22/03 16.0 7.2 0 1024.70 56 0 --
09:44 - 22/03 15.2 6.5 0 1024.60 56 0 --
09:29 - 22/03 14.7 6.5 0 1024.60 58 1.6 NNO


   In caso di mancato funzionamento di qualche risorsa, vi preghiamo di segnalarcelo alla pagina Contatti.
© 2019 Osservatorio Meteo OMTeA
Sito di informazione su Meteo, Tempo in atto e Clima in Italia